Terminal Aerodrome Forecast
Issued by NWS

Home | Current Version | Previous Version | Text Only | Print | Product List | Glossary On
Versions: 1 2 3 4 5 6 7 8 9 10 11 12 13
000
FTUS45 KABQ 101100
TAFFMN
TAF
KFMN 101129Z 1012/1112 10006KT P6SM SCT120
     FM101900 23008KT P6SM SCT100
     FM110000 VRB15G25KT P6SM VCTS BKN090CB
     FM110300 12010KT P6SM VCSH BKN100
     FM110800 09006KT P6SM BKN100=

USA.gov is the U.S. government's official web portal to all federal, state and local government web resources and services.